sensor_id;sensor_type;location;lat;lon;timestamp;P1;durP1;ratioP1;P2;durP2;ratioP2
52798;SDS011;38667;42.872;74.622;2023-12-22T00:00:16;93.93;;;40.47;;
52798;SDS011;38667;42.872;74.622;2023-12-22T00:02:42;103.30;;;45.27;;
52798;SDS011;38667;42.872;74.622;2023-12-22T00:05:09;110.30;;;45.93;;
52798;SDS011;38667;42.872;74.622;2023-12-22T00:07:37;142.00;;;55.60;;
52798;SDS011;38667;42.872;74.622;2023-12-22T00:10:03;111.57;;;48.30;;
52798;SDS011;38667;42.872;74.622;2023-12-22T00:12:30;156.17;;;57.93;;
52798;SDS011;38667;42.872;74.622;2023-12-22T00:14:56;163.73;;;62.17;;
52798;SDS011;38667;42.872;74.622;2023-12-22T00:17:22;158.67;;;59.50;;
52798;SDS011;38667;42.872;74.622;2023-12-22T00:19:48;129.77;;;45.53;;
52798;SDS011;38667;42.872;74.622;2023-12-22T00:22:15;77.17;;;31.90;;
52798;SDS011;38667;42.872;74.622;2023-12-22T00:24:43;68.63;;;27.00;;
52798;SDS011;38667;42.872;74.622;2023-12-22T00:27:09;54.93;;;23.47;;
52798;SDS011;38667;42.872;74.622;2023-12-22T00:29:35;53.27;;;22.47;;
52798;SDS011;38667;42.872;74.622;2023-12-22T00:32:02;49.90;;;21.00;;
52798;SDS011;38667;42.872;74.622;2023-12-22T00:34:29;44.43;;;19.17;;
52798;SDS011;38667;42.872;74.622;2023-12-22T00:36:55;45.17;;;19.10;;
52798;SDS011;38667;42.872;74.622;2023-12-22T00:39:21;47.17;;;19.50;;
52798;SDS011;38667;42.872;74.622;2023-12-22T00:41:49;42.83;;;19.27;;
52798;SDS011;38667;42.872;74.622;2023-12-22T00:44:15;41.77;;;19.50;;
52798;SDS011;38667;42.872;74.622;2023-12-22T00:46:42;43.80;;;19.83;;
52798;SDS011;38667;42.872;74.622;2023-12-22T00:49:08;47.03;;;19.43;;
52798;SDS011;38667;42.872;74.622;2023-12-22T00:51:34;46.13;;;20.70;;
52798;SDS011;38667;42.872;74.622;2023-12-22T00:54:01;45.57;;;19.13;;
52798;SDS011;38667;42.872;74.622;2023-12-22T00:56:27;47.03;;;19.73;;
52798;SDS011;38667;42.872;74.622;2023-12-22T00:58:55;42.73;;;17.67;;
52798;SDS011;38667;42.872;74.622;2023-12-22T01:01:21;42.50;;;19.37;;
52798;SDS011;38667;42.872;74.622;2023-12-22T01:03:48;42.53;;;18.93;;
52798;SDS011;38667;42.872;74.622;2023-12-22T01:06:14;50.30;;;18.70;;
52798;SDS011;38667;42.872;74.622;2023-12-22T01:08:40;42.87;;;19.40;;
52798;SDS011;38667;42.872;74.622;2023-12-22T01:11:07;43.57;;;20.93;;
52798;SDS011;38667;42.872;74.622;2023-12-22T01:13:33;48.13;;;22.57;;
52798;SDS011;38667;42.872;74.622;2023-12-22T01:16:01;50.13;;;24.13;;
52798;SDS011;38667;42.872;74.622;2023-12-22T01:18:27;51.80;;;23.97;;
52798;SDS011;38667;42.872;74.622;2023-12-22T01:20:54;45.80;;;22.67;;
52798;SDS011;38667;42.872;74.622;2023-12-22T01:23:20;47.53;;;21.43;;
52798;SDS011;38667;42.872;74.622;2023-12-22T01:25:49;45.77;;;21.03;;
52798;SDS011;38667;42.872;74.622;2023-12-22T01:28:16;38.13;;;17.87;;
52798;SDS011;38667;42.872;74.622;2023-12-22T01:30:42;24.43;;;12.67;;
52798;SDS011;38667;42.872;74.622;2023-12-22T01:33:10;33.53;;;13.30;;
52798;SDS011;38667;42.872;74.622;2023-12-22T01:35:36;24.83;;;12.53;;
52798;SDS011;38667;42.872;74.622;2023-12-22T01:38:03;23.17;;;10.40;;
52798;SDS011;38667;42.872;74.622;2023-12-22T01:40:29;18.37;;;9.27;;
52798;SDS011;38667;42.872;74.622;2023-12-22T01:43:25;13.37;;;5.30;;
52798;SDS011;38667;42.872;74.622;2023-12-22T01:45:42;9.77;;;4.37;;
52798;SDS011;38667;42.872;74.622;2023-12-22T01:48:10;10.10;;;4.97;;
52798;SDS011;38667;42.872;74.622;2023-12-22T01:50:37;14.53;;;4.37;;
52798;SDS011;38667;42.872;74.622;2023-12-22T01:53:03;14.07;;;4.00;;
52798;SDS011;38667;42.872;74.622;2023-12-22T01:55:30;12.03;;;4.57;;
52798;SDS011;38667;42.872;74.622;2023-12-22T01:57:56;16.33;;;5.47;;
52798;SDS011;38667;42.872;74.622;2023-12-22T02:00:23;12.57;;;5.80;;
52798;SDS011;38667;42.872;74.622;2023-12-22T02:02:49;13.13;;;6.30;;
52798;SDS011;38667;42.872;74.622;2023-12-22T02:05:17;11.50;;;6.57;;
52798;SDS011;38667;42.872;74.622;2023-12-22T02:07:44;21.23;;;10.83;;
52798;SDS011;38667;42.872;74.622;2023-12-22T02:10:11;26.73;;;11.32;;
52798;SDS011;38667;42.872;74.622;2023-12-22T02:12:38;21.53;;;11.53;;
52798;SDS011;38667;42.872;74.622;2023-12-22T02:15:04;20.77;;;10.27;;
52798;SDS011;38667;42.872;74.622;2023-12-22T02:17:34;23.70;;;10.37;;
52798;SDS011;38667;42.872;74.622;2023-12-22T02:20:09;16.13;;;8.70;;
52798;SDS011;38667;42.872;74.622;2023-12-22T02:22:37;19.42;;;8.27;;
52798;SDS011;38667;42.872;74.622;2023-12-22T02:25:03;19.05;;;8.85;;
52798;SDS011;38667;42.872;74.622;2023-12-22T02:27:32;20.58;;;10.00;;
52798;SDS011;38667;42.872;74.622;2023-12-22T02:30:05;17.85;;;8.18;;
52798;SDS011;38667;42.872;74.622;2023-12-22T02:32:35;18.63;;;9.23;;
52798;SDS011;38667;42.872;74.622;2023-12-22T02:35:04;18.98;;;9.02;;
52798;SDS011;38667;42.872;74.622;2023-12-22T02:37:34;18.20;;;8.95;;
52798;SDS011;38667;42.872;74.622;2023-12-22T02:40:04;23.70;;;7.75;;
52798;SDS011;38667;42.872;74.622;2023-12-22T02:42:32;17.25;;;7.43;;
52798;SDS011;38667;42.872;74.622;2023-12-22T02:44:59;15.02;;;8.00;;
52798;SDS011;38667;42.872;74.622;2023-12-22T02:47:26;15.63;;;7.18;;
52798;SDS011;38667;42.872;74.622;2023-12-22T02:49:52;15.32;;;8.07;;
52798;SDS011;38667;42.872;74.622;2023-12-22T02:52:18;12.93;;;7.32;;
52798;SDS011;38667;42.872;74.622;2023-12-22T02:54:46;17.45;;;7.85;;
52798;SDS011;38667;42.872;74.622;2023-12-22T02:57:13;16.45;;;8.40;;
52798;SDS011;38667;42.872;74.622;2023-12-22T02:59:39;19.02;;;7.85;;
52798;SDS011;38667;42.872;74.622;2023-12-22T03:02:05;15.15;;;7.80;;
52798;SDS011;38667;42.872;74.622;2023-12-22T03:04:32;12.93;;;6.65;;
52798;SDS011;38667;42.872;74.622;2023-12-22T03:06:58;23.08;;;9.48;;
52798;SDS011;38667;42.872;74.622;2023-12-22T03:09:24;20.25;;;8.20;;
52798;SDS011;38667;42.872;74.622;2023-12-22T03:11:52;17.08;;;7.72;;
52798;SDS011;38667;42.872;74.622;2023-12-22T03:14:18;13.80;;;6.40;;
52798;SDS011;38667;42.872;74.622;2023-12-22T03:16:45;17.77;;;6.10;;
52798;SDS011;38667;42.872;74.622;2023-12-22T03:19:11;20.48;;;5.85;;
52798;SDS011;38667;42.872;74.622;2023-12-22T03:21:38;9.88;;;5.22;;
52798;SDS011;38667;42.872;74.622;2023-12-22T03:24:04;19.25;;;5.47;;
52798;SDS011;38667;42.872;74.622;2023-12-22T03:26:31;10.55;;;5.30;;
52798;SDS011;38667;42.872;74.622;2023-12-22T03:28:58;11.63;;;6.03;;
52798;SDS011;38667;42.872;74.622;2023-12-22T03:31:25;11.57;;;5.65;;
52798;SDS011;38667;42.872;74.622;2023-12-22T03:33:51;16.05;;;6.22;;
52798;SDS011;38667;42.872;74.622;2023-12-22T03:36:19;14.98;;;5.63;;
52798;SDS011;38667;42.872;74.622;2023-12-22T03:38:45;12.30;;;5.45;;
52798;SDS011;38667;42.872;74.622;2023-12-22T03:41:11;13.05;;;5.68;;
52798;SDS011;38667;42.872;74.622;2023-12-22T03:43:38;12.20;;;5.82;;
52798;SDS011;38667;42.872;74.622;2023-12-22T03:46:06;12.82;;;6.00;;
52798;SDS011;38667;42.872;74.622;2023-12-22T03:48:32;10.10;;;4.80;;
52798;SDS011;38667;42.872;74.622;2023-12-22T03:50:59;13.65;;;5.75;;
52798;SDS011;38667;42.872;74.622;2023-12-22T03:53:25;14.75;;;6.43;;
52798;SDS011;38667;42.872;74.622;2023-12-22T03:55:51;13.93;;;6.30;;
52798;SDS011;38667;42.872;74.622;2023-12-22T03:58:18;12.25;;;6.68;;
52798;SDS011;38667;42.872;74.622;2023-12-22T04:00:44;14.27;;;6.65;;
52798;SDS011;38667;42.872;74.622;2023-12-22T04:03:12;13.95;;;6.10;;
52798;SDS011;38667;42.872;74.622;2023-12-22T04:05:38;10.45;;;6.47;;
52798;SDS011;38667;42.872;74.622;2023-12-22T04:08:05;13.88;;;6.20;;
52798;SDS011;38667;42.872;74.622;2023-12-22T04:10:31;11.35;;;5.95;;
52798;SDS011;38667;42.872;74.622;2023-12-22T04:12:58;10.57;;;4.38;;
52798;SDS011;38667;42.872;74.622;2023-12-22T04:15:24;9.23;;;5.22;;
52798;SDS011;38667;42.872;74.622;2023-12-22T04:17:50;16.80;;;5.45;;
52798;SDS011;38667;42.872;74.622;2023-12-22T04:20:19;12.38;;;5.93;;
52798;SDS011;38667;42.872;74.622;2023-12-22T04:22:45;12.77;;;5.10;;
52798;SDS011;38667;42.872;74.622;2023-12-22T04:25:12;12.60;;;5.10;;
52798;SDS011;38667;42.872;74.622;2023-12-22T04:27:38;11.95;;;4.90;;
52798;SDS011;38667;42.872;74.622;2023-12-22T04:30:05;13.40;;;6.28;;
52798;SDS011;38667;42.872;74.622;2023-12-22T04:32:32;23.30;;;7.50;;
52798;SDS011;38667;42.872;74.622;2023-12-22T04:34:58;14.85;;;7.20;;
52798;SDS011;38667;42.872;74.622;2023-12-22T04:37:26;16.05;;;6.45;;
52798;SDS011;38667;42.872;74.622;2023-12-22T04:39:52;16.00;;;6.13;;
52798;SDS011;38667;42.872;74.622;2023-12-22T04:42:19;15.88;;;7.75;;
52798;SDS011;38667;42.872;74.622;2023-12-22T04:44:45;18.02;;;8.02;;
52798;SDS011;38667;42.872;74.622;2023-12-22T04:47:11;15.10;;;8.10;;
52798;SDS011;38667;42.872;74.622;2023-12-22T04:49:38;22.23;;;8.85;;
52798;SDS011;38667;42.872;74.622;2023-12-22T04:52:04;22.85;;;9.80;;
52798;SDS011;38667;42.872;74.622;2023-12-22T04:54:32;22.13;;;8.63;;
52798;SDS011;38667;42.872;74.622;2023-12-22T04:56:59;19.33;;;8.93;;
52798;SDS011;38667;42.872;74.622;2023-12-22T04:59:25;21.45;;;8.57;;
52798;SDS011;38667;42.872;74.622;2023-12-22T05:01:51;17.58;;;6.43;;
52798;SDS011;38667;42.872;74.622;2023-12-22T05:04:18;13.18;;;6.40;;
52798;SDS011;38667;42.872;74.622;2023-12-22T05:06:44;19.65;;;7.05;;
52798;SDS011;38667;42.872;74.622;2023-12-22T05:09:10;15.20;;;6.70;;
52798;SDS011;38667;42.872;74.622;2023-12-22T05:11:38;15.50;;;6.68;;
52798;SDS011;38667;42.872;74.622;2023-12-22T05:14:05;21.67;;;8.00;;
52798;SDS011;38667;42.872;74.622;2023-12-22T05:16:31;19.40;;;8.68;;
52798;SDS011;38667;42.872;74.622;2023-12-22T05:18:57;20.30;;;9.27;;
52798;SDS011;38667;42.872;74.622;2023-12-22T05:21:24;17.95;;;6.03;;
52798;SDS011;38667;42.872;74.622;2023-12-22T05:23:50;17.75;;;6.90;;
52798;SDS011;38667;42.872;74.622;2023-12-22T05:26:17;13.63;;;6.10;;
52798;SDS011;38667;42.872;74.622;2023-12-22T05:28:46;12.93;;;6.03;;
52798;SDS011;38667;42.872;74.622;2023-12-22T05:31:12;16.23;;;8.10;;
52798;SDS011;38667;42.872;74.622;2023-12-22T05:33:38;14.98;;;7.05;;
52798;SDS011;38667;42.872;74.622;2023-12-22T05:36:06;15.40;;;6.90;;
52798;SDS011;38667;42.872;74.622;2023-12-22T05:38:32;13.80;;;7.38;;
52798;SDS011;38667;42.872;74.622;2023-12-22T05:41:02;9.60;;;4.80;;
52798;SDS011;38667;42.872;74.622;2023-12-22T05:43:28;9.95;;;5.03;;
52798;SDS011;38667;42.872;74.622;2023-12-22T05:45:56;17.60;;;6.65;;
52798;SDS011;38667;42.872;74.622;2023-12-22T05:48:23;11.13;;;5.55;;
52798;SDS011;38667;42.872;74.622;2023-12-22T05:50:49;9.90;;;5.07;;
52798;SDS011;38667;42.872;74.622;2023-12-22T05:53:16;10.48;;;4.95;;
52798;SDS011;38667;42.872;74.622;2023-12-22T05:55:42;14.38;;;5.38;;
52798;SDS011;38667;42.872;74.622;2023-12-22T05:58:08;13.32;;;5.63;;
52798;SDS011;38667;42.872;74.622;2023-12-22T06:00:35;12.05;;;5.95;;
52798;SDS011;38667;42.872;74.622;2023-12-22T06:03:03;12.73;;;5.72;;
52798;SDS011;38667;42.872;74.622;2023-12-22T06:05:29;8.32;;;4.47;;
52798;SDS011;38667;42.872;74.622;2023-12-22T06:07:56;15.32;;;4.97;;
52798;SDS011;38667;42.872;74.622;2023-12-22T06:10:22;12.70;;;6.35;;
52798;SDS011;38667;42.872;74.622;2023-12-22T06:12:48;13.00;;;5.72;;
52798;SDS011;38667;42.872;74.622;2023-12-22T06:15:15;10.63;;;4.60;;
52798;SDS011;38667;42.872;74.622;2023-12-22T06:17:41;12.98;;;5.93;;
52798;SDS011;38667;42.872;74.622;2023-12-22T06:20:10;13.88;;;6.43;;
52798;SDS011;38667;42.872;74.622;2023-12-22T06:22:37;14.13;;;6.78;;
52798;SDS011;38667;42.872;74.622;2023-12-22T06:25:03;15.55;;;5.95;;
52798;SDS011;38667;42.872;74.622;2023-12-22T06:27:30;13.50;;;5.70;;
52798;SDS011;38667;42.872;74.622;2023-12-22T06:29:57;10.77;;;6.18;;
52798;SDS011;38667;42.872;74.622;2023-12-22T06:32:23;6.57;;;4.57;;
52798;SDS011;38667;42.872;74.622;2023-12-22T06:34:49;18.52;;;6.63;;
52798;SDS011;38667;42.872;74.622;2023-12-22T06:37:17;12.57;;;4.60;;
52798;SDS011;38667;42.872;74.622;2023-12-22T06:39:44;9.65;;;4.20;;
52798;SDS011;38667;42.872;74.622;2023-12-22T06:42:10;16.83;;;7.38;;
52798;SDS011;38667;42.872;74.622;2023-12-22T06:44:36;18.65;;;6.07;;
52798;SDS011;38667;42.872;74.622;2023-12-22T06:47:03;14.90;;;5.93;;
52798;SDS011;38667;42.872;74.622;2023-12-22T06:49:29;23.00;;;7.95;;
52798;SDS011;38667;42.872;74.622;2023-12-22T06:51:56;14.57;;;7.57;;
52798;SDS011;38667;42.872;74.622;2023-12-22T06:54:24;14.75;;;5.97;;
52798;SDS011;38667;42.872;74.622;2023-12-22T06:56:50;15.00;;;6.30;;
52798;SDS011;38667;42.872;74.622;2023-12-22T06:59:16;12.82;;;6.13;;
52798;SDS011;38667;42.872;74.622;2023-12-22T07:01:43;9.55;;;5.25;;
52798;SDS011;38667;42.872;74.622;2023-12-22T07:04:09;13.25;;;6.63;;
52798;SDS011;38667;42.872;74.622;2023-12-22T07:06:35;15.00;;;5.93;;
52798;SDS011;38667;42.872;74.622;2023-12-22T07:11:54;11.75;;;6.60;;
52798;SDS011;38667;42.872;74.622;2023-12-22T07:14:21;11.30;;;5.38;;
52798;SDS011;38667;42.872;74.622;2023-12-22T07:16:47;8.45;;;4.93;;
52798;SDS011;38667;42.872;74.622;2023-12-22T07:19:13;33.35;;;17.05;;
52798;SDS011;38667;42.872;74.622;2023-12-22T07:21:40;54.65;;;28.15;;
52798;SDS011;38667;42.872;74.622;2023-12-22T07:24:06;72.38;;;36.20;;
52798;SDS011;38667;42.872;74.622;2023-12-22T07:26:34;67.60;;;34.53;;
52798;SDS011;38667;42.872;74.622;2023-12-22T07:29:02;78.03;;;36.17;;
52798;SDS011;38667;42.872;74.622;2023-12-22T07:31:29;63.60;;;30.92;;
52798;SDS011;38667;42.872;74.622;2023-12-22T07:33:55;112.75;;;54.88;;
52798;SDS011;38667;42.872;74.622;2023-12-22T07:36:21;119.95;;;62.97;;
52798;SDS011;38667;42.872;74.622;2023-12-22T07:38:48;110.95;;;60.03;;
52798;SDS011;38667;42.872;74.622;2023-12-22T07:41:14;103.00;;;53.38;;
52798;SDS011;38667;42.872;74.622;2023-12-22T07:43:43;80.28;;;41.45;;
52798;SDS011;38667;42.872;74.622;2023-12-22T07:46:16;72.38;;;38.17;;
52798;SDS011;38667;42.872;74.622;2023-12-22T07:48:42;66.97;;;36.95;;
52798;SDS011;38667;42.872;74.622;2023-12-22T07:51:09;81.53;;;42.17;;
52798;SDS011;38667;42.872;74.622;2023-12-22T07:53:35;54.47;;;29.00;;
52798;SDS011;38667;42.872;74.622;2023-12-22T07:56:01;51.00;;;28.50;;
52798;SDS011;38667;42.872;74.622;2023-12-22T07:58:28;48.05;;;25.65;;
52798;SDS011;38667;42.872;74.622;2023-12-22T08:00:56;43.35;;;24.27;;
52798;SDS011;38667;42.872;74.622;2023-12-22T08:03:23;32.97;;;18.45;;
52798;SDS011;38667;42.872;74.622;2023-12-22T08:05:49;39.63;;;20.33;;
52798;SDS011;38667;42.872;74.622;2023-12-22T08:08:15;44.67;;;19.98;;
52798;SDS011;38667;42.872;74.622;2023-12-22T08:10:42;45.20;;;19.73;;
52798;SDS011;38667;42.872;74.622;2023-12-22T08:13:08;48.35;;;18.88;;
52798;SDS011;38667;42.872;74.622;2023-12-22T08:15:34;37.65;;;17.73;;
52798;SDS011;38667;42.872;74.622;2023-12-22T08:18:02;56.85;;;19.10;;
52798;SDS011;38667;42.872;74.622;2023-12-22T08:20:29;50.67;;;19.30;;
52798;SDS011;38667;42.872;74.622;2023-12-22T08:22:56;38.40;;;17.55;;
52798;SDS011;38667;42.872;74.622;2023-12-22T08:25:22;52.13;;;18.13;;
52798;SDS011;38667;42.872;74.622;2023-12-22T08:27:48;48.72;;;18.27;;
52798;SDS011;38667;42.872;74.622;2023-12-22T08:30:15;50.00;;;20.33;;
52798;SDS011;38667;42.872;74.622;2023-12-22T08:32:41;50.72;;;23.55;;
52798;SDS011;38667;42.872;74.622;2023-12-22T08:35:09;60.22;;;24.65;;
52798;SDS011;38667;42.872;74.622;2023-12-22T08:37:36;60.97;;;26.95;;
52798;SDS011;38667;42.872;74.622;2023-12-22T08:40:02;63.30;;;28.80;;
52798;SDS011;38667;42.872;74.622;2023-12-22T08:42:29;72.35;;;29.73;;
52798;SDS011;38667;42.872;74.622;2023-12-22T08:44:56;73.40;;;33.38;;
52798;SDS011;38667;42.872;74.622;2023-12-22T08:47:22;78.68;;;35.47;;
52798;SDS011;38667;42.872;74.622;2023-12-22T08:49:48;120.65;;;57.70;;
52798;SDS011;38667;42.872;74.622;2023-12-22T08:52:16;142.20;;;68.93;;
52798;SDS011;38667;42.872;74.622;2023-12-22T08:54:43;133.27;;;69.47;;
52798;SDS011;38667;42.872;74.622;2023-12-22T08:57:09;117.35;;;58.90;;
52798;SDS011;38667;42.872;74.622;2023-12-22T08:59:35;111.68;;;58.75;;
52798;SDS011;38667;42.872;74.622;2023-12-22T09:02:02;116.38;;;58.00;;
52798;SDS011;38667;42.872;74.622;2023-12-22T09:04:28;113.35;;;57.08;;
52798;SDS011;38667;42.872;74.622;2023-12-22T09:06:55;105.35;;;54.08;;
52798;SDS011;38667;42.872;74.622;2023-12-22T09:09:24;104.90;;;55.50;;
52798;SDS011;38667;42.872;74.622;2023-12-22T09:11:50;101.05;;;54.60;;
52798;SDS011;38667;42.872;74.622;2023-12-22T09:14:16;108.70;;;56.25;;
52798;SDS011;38667;42.872;74.622;2023-12-22T09:16:42;104.90;;;54.13;;
52798;SDS011;38667;42.872;74.622;2023-12-22T09:19:09;121.00;;;57.97;;
52798;SDS011;38667;42.872;74.622;2023-12-22T09:21:35;114.37;;;55.60;;
52798;SDS011;38667;42.872;74.622;2023-12-22T09:24:02;112.13;;;56.13;;
52798;SDS011;38667;42.872;74.622;2023-12-22T09:26:30;115.63;;;59.37;;
52798;SDS011;38667;42.872;74.622;2023-12-22T09:28:56;114.43;;;57.33;;
52798;SDS011;38667;42.872;74.622;2023-12-22T09:31:22;118.47;;;59.23;;
52798;SDS011;38667;42.872;74.622;2023-12-22T09:33:49;117.77;;;59.57;;
52798;SDS011;38667;42.872;74.622;2023-12-22T09:36:15;124.50;;;59.23;;
52798;SDS011;38667;42.872;74.622;2023-12-22T09:38:41;119.77;;;58.73;;
52798;SDS011;38667;42.872;74.622;2023-12-22T09:41:08;116.03;;;59.47;;
52798;SDS011;38667;42.872;74.622;2023-12-22T09:43:36;113.37;;;58.97;;
52798;SDS011;38667;42.872;74.622;2023-12-22T09:46:03;112.80;;;59.27;;
52798;SDS011;38667;42.872;74.622;2023-12-22T09:48:31;124.33;;;60.20;;
52798;SDS011;38667;42.872;74.622;2023-12-22T09:51:00;118.97;;;60.97;;
52798;SDS011;38667;42.872;74.622;2023-12-22T09:53:28;123.37;;;58.20;;
52798;SDS011;38667;42.872;74.622;2023-12-22T09:55:56;114.87;;;59.77;;
52798;SDS011;38667;42.872;74.622;2023-12-22T09:58:24;117.77;;;57.43;;
52798;SDS011;38667;42.872;74.622;2023-12-22T10:00:52;112.43;;;57.47;;
52798;SDS011;38667;42.872;74.622;2023-12-22T10:03:20;119.43;;;62.07;;
52798;SDS011;38667;42.872;74.622;2023-12-22T10:05:49;118.37;;;59.87;;
52798;SDS011;38667;42.872;74.622;2023-12-22T10:08:16;124.27;;;62.47;;
52798;SDS011;38667;42.872;74.622;2023-12-22T10:10:44;132.67;;;63.50;;
52798;SDS011;38667;42.872;74.622;2023-12-22T10:13:12;128.13;;;64.83;;
52798;SDS011;38667;42.872;74.622;2023-12-22T10:15:39;136.03;;;66.83;;
52798;SDS011;38667;42.872;74.622;2023-12-22T10:18:08;136.77;;;64.77;;
52798;SDS011;38667;42.872;74.622;2023-12-22T10:20:34;124.80;;;64.13;;
52798;SDS011;38667;42.872;74.622;2023-12-22T10:23:01;134.93;;;66.57;;
52798;SDS011;38667;42.872;74.622;2023-12-22T10:25:28;130.23;;;64.90;;
52798;SDS011;38667;42.872;74.622;2023-12-22T10:27:54;140.73;;;67.30;;
52798;SDS011;38667;42.872;74.622;2023-12-22T10:30:21;137.47;;;68.30;;
52798;SDS011;38667;42.872;74.622;2023-12-22T10:32:49;126.67;;;64.77;;
52798;SDS011;38667;42.872;74.622;2023-12-22T10:35:17;128.03;;;66.53;;
52798;SDS011;38667;42.872;74.622;2023-12-22T10:37:45;139.50;;;68.00;;
52798;SDS011;38667;42.872;74.622;2023-12-22T10:40:12;136.20;;;69.57;;
52798;SDS011;38667;42.872;74.622;2023-12-22T10:42:39;123.57;;;63.20;;
52798;SDS011;38667;42.872;74.622;2023-12-22T10:45:06;121.87;;;59.67;;
52798;SDS011;38667;42.872;74.622;2023-12-22T10:47:33;117.03;;;61.27;;
52798;SDS011;38667;42.872;74.622;2023-12-22T10:50:01;131.23;;;65.53;;
52798;SDS011;38667;42.872;74.622;2023-12-22T10:52:29;128.80;;;66.53;;
52798;SDS011;38667;42.872;74.622;2023-12-22T10:54:56;132.27;;;68.30;;
52798;SDS011;38667;42.872;74.622;2023-12-22T10:57:23;138.27;;;65.63;;
52798;SDS011;38667;42.872;74.622;2023-12-22T10:59:51;133.00;;;65.60;;
52798;SDS011;38667;42.872;74.622;2023-12-22T11:02:18;123.53;;;60.73;;
52798;SDS011;38667;42.872;74.622;2023-12-22T11:04:47;118.13;;;60.40;;
52798;SDS011;38667;42.872;74.622;2023-12-22T11:07:20;123.47;;;60.47;;
52798;SDS011;38667;42.872;74.622;2023-12-22T11:09:51;111.47;;;58.70;;
52798;SDS011;38667;42.872;74.622;2023-12-22T11:12:19;126.23;;;62.43;;
52798;SDS011;38667;42.872;74.622;2023-12-22T11:14:46;128.60;;;63.03;;
52798;SDS011;38667;42.872;74.622;2023-12-22T11:17:13;139.33;;;65.73;;
52798;SDS011;38667;42.872;74.622;2023-12-22T11:19:40;132.90;;;64.20;;
52798;SDS011;38667;42.872;74.622;2023-12-22T11:22:07;138.63;;;67.07;;
52798;SDS011;38667;42.872;74.622;2023-12-22T11:24:35;124.90;;;60.27;;
52798;SDS011;38667;42.872;74.622;2023-12-22T11:27:05;114.90;;;57.93;;
52798;SDS011;38667;42.872;74.622;2023-12-22T11:29:32;127.73;;;57.50;;
52798;SDS011;38667;42.872;74.622;2023-12-22T11:31:59;125.00;;;57.80;;
52798;SDS011;38667;42.872;74.622;2023-12-22T11:34:29;115.70;;;57.37;;
52798;SDS011;38667;42.872;74.622;2023-12-22T11:36:57;122.07;;;58.93;;
52798;SDS011;38667;42.872;74.622;2023-12-22T11:39:25;122.23;;;59.13;;
52798;SDS011;38667;42.872;74.622;2023-12-22T11:41:51;118.50;;;58.13;;
52798;SDS011;38667;42.872;74.622;2023-12-22T11:44:21;125.57;;;60.80;;
52798;SDS011;38667;42.872;74.622;2023-12-22T11:46:48;131.40;;;61.37;;
52798;SDS011;38667;42.872;74.622;2023-12-22T11:49:14;122.03;;;60.43;;
52798;SDS011;38667;42.872;74.622;2023-12-22T11:51:40;134.20;;;61.27;;
52798;SDS011;38667;42.872;74.622;2023-12-22T11:57:09;126.23;;;62.53;;
52798;SDS011;38667;42.872;74.622;2023-12-22T11:59:57;129.90;;;61.17;;
52798;SDS011;38667;42.872;74.622;2023-12-22T12:02:26;123.17;;;59.33;;
52798;SDS011;38667;42.872;74.622;2023-12-22T12:04:52;116.27;;;59.60;;
52798;SDS011;38667;42.872;74.622;2023-12-22T12:07:37;125.30;;;58.50;;
52798;SDS011;38667;42.872;74.622;2023-12-22T12:10:08;120.37;;;56.70;;
52798;SDS011;38667;42.872;74.622;2023-12-22T12:12:34;123.00;;;59.67;;
52798;SDS011;38667;42.872;74.622;2023-12-22T12:15:06;117.33;;;59.97;;
52798;SDS011;38667;42.872;74.622;2023-12-22T12:17:33;126.57;;;60.47;;
52798;SDS011;38667;42.872;74.622;2023-12-22T12:20:04;160.70;;;71.30;;
52798;SDS011;38667;42.872;74.622;2023-12-22T12:22:32;146.67;;;71.87;;
52798;SDS011;38667;42.872;74.622;2023-12-22T12:24:59;221.40;;;94.67;;
52798;SDS011;38667;42.872;74.622;2023-12-22T12:27:25;182.50;;;80.77;;
52798;SDS011;38667;42.872;74.622;2023-12-22T12:29:51;229.97;;;87.63;;
52798;SDS011;38667;42.872;74.622;2023-12-22T12:32:20;229.40;;;86.43;;
52798;SDS011;38667;42.872;74.622;2023-12-22T12:34:49;159.43;;;70.57;;
52798;SDS011;38667;42.872;74.622;2023-12-22T12:37:16;163.30;;;68.47;;
52798;SDS011;38667;42.872;74.622;2023-12-22T12:39:42;175.07;;;76.33;;
52798;SDS011;38667;42.872;74.622;2023-12-22T12:42:10;131.33;;;60.30;;
52798;SDS011;38667;42.872;74.622;2023-12-22T12:44:41;146.67;;;64.40;;
52798;SDS011;38667;42.872;74.622;2023-12-22T12:47:12;152.30;;;64.03;;
52798;SDS011;38667;42.872;74.622;2023-12-22T12:49:41;135.43;;;54.83;;
52798;SDS011;38667;42.872;74.622;2023-12-22T12:52:11;130.23;;;59.50;;
52798;SDS011;38667;42.872;74.622;2023-12-22T12:54:38;156.30;;;72.03;;
52798;SDS011;38667;42.872;74.622;2023-12-22T12:57:04;147.83;;;65.70;;
52798;SDS011;38667;42.872;74.622;2023-12-22T12:59:31;314.20;;;139.00;;
52798;SDS011;38667;42.872;74.622;2023-12-22T13:01:57;230.60;;;97.47;;
52798;SDS011;38667;42.872;74.622;2023-12-22T13:04:24;249.10;;;112.40;;
52798;SDS011;38667;42.872;74.622;2023-12-22T13:07:03;279.60;;;132.70;;
52798;SDS011;38667;42.872;74.622;2023-12-22T13:09:31;273.40;;;134.67;;
52798;SDS011;38667;42.872;74.622;2023-12-22T13:11:58;271.13;;;130.50;;
52798;SDS011;38667;42.872;74.622;2023-12-22T13:14:25;255.43;;;122.97;;
52798;SDS011;38667;42.872;74.622;2023-12-22T13:16:52;265.13;;;122.07;;
52798;SDS011;38667;42.872;74.622;2023-12-22T13:19:20;299.73;;;143.03;;
52798;SDS011;38667;42.872;74.622;2023-12-22T13:21:46;314.90;;;147.60;;
52798;SDS011;38667;42.872;74.622;2023-12-22T13:24:15;339.60;;;156.53;;
52798;SDS011;38667;42.872;74.622;2023-12-22T13:26:42;345.90;;;158.30;;
52798;SDS011;38667;42.872;74.622;2023-12-22T13:29:09;235.37;;;112.07;;
52798;SDS011;38667;42.872;74.622;2023-12-22T13:31:37;240.93;;;113.17;;
52798;SDS011;38667;42.872;74.622;2023-12-22T13:34:07;266.40;;;125.87;;
52798;SDS011;38667;42.872;74.622;2023-12-22T13:36:34;247.13;;;116.00;;
52798;SDS011;38667;42.872;74.622;2023-12-22T13:39:01;249.33;;;115.73;;
52798;SDS011;38667;42.872;74.622;2023-12-22T13:41:29;279.83;;;129.33;;
52798;SDS011;38667;42.872;74.622;2023-12-22T13:43:57;226.07;;;109.90;;
52798;SDS011;38667;42.872;74.622;2023-12-22T13:46:27;211.63;;;102.20;;
52798;SDS011;38667;42.872;74.622;2023-12-22T13:48:54;185.93;;;95.50;;
52798;SDS011;38667;42.872;74.622;2023-12-22T13:51:20;185.33;;;96.77;;
52798;SDS011;38667;42.872;74.622;2023-12-22T13:53:47;203.20;;;97.07;;
52798;SDS011;38667;42.872;74.622;2023-12-22T13:56:13;188.03;;;97.73;;
52798;SDS011;38667;42.872;74.622;2023-12-22T13:58:45;190.00;;;95.87;;
52798;SDS011;38667;42.872;74.622;2023-12-22T14:01:12;206.07;;;104.83;;
52798;SDS011;38667;42.872;74.622;2023-12-22T14:03:39;234.77;;;114.37;;
52798;SDS011;38667;42.872;74.622;2023-12-22T14:06:06;223.83;;;110.83;;
52798;SDS011;38667;42.872;74.622;2023-12-22T14:08:32;238.87;;;116.33;;
52798;SDS011;38667;42.872;74.622;2023-12-22T14:10:59;256.97;;;124.37;;
52798;SDS011;38667;42.872;74.622;2023-12-22T14:13:25;263.13;;;126.40;;